Time;durP1;ratioP1;P1;durP2;ratioP2;P2;SDS_P1;SDS_P2;PMS_P1;PMS_P2;Temp;Humidity;BMP_temperature;BMP_pressure;BME280_temperature;BME280_humidity;BME280_pressure;Samples;Min_cycle;Max_cycle;Signal;HPM_P1;HPM_P2
2023/03/11 00:00:31;;;;;;;4.97;2.53;;;1.20;98.00;;;;;;5041769;28;20041;-65
2023/03/11 00:02:59;;;;;;;3.80;2.17;;;1.10;98.00;;;;;;5048760;28;20033;-64
2023/03/11 00:05:28;;;;;;;3.83;2.30;;;1.10;97.40;;;;;;5033340;28;20034;-64
2023/03/11 00:07:54;;;;;;;3.45;1.88;;;1.10;96.80;;;;;;5020837;28;20030;-64
2023/03/11 00:10:23;;;;;;;4.97;2.70;;;1.00;96.30;;;;;;5033924;28;20104;-64
2023/03/11 00:12:49;;;;;;;3.88;2.10;;;1.00;96.80;;;;;;5026626;28;20061;-65
2023/03/11 00:15:14;;;;;;;4.53;2.50;;;0.90;96.10;;;;;;5031296;28;20060;-65
2023/03/11 00:17:40;;;;;;;3.80;2.15;;;0.90;96.00;;;;;;5037012;28;20421;-64
2023/03/11 00:20:07;;;;;;;6.03;2.63;;;0.80;96.20;;;;;;5031691;28;20059;-64
2023/03/11 00:22:33;;;;;;;3.40;2.03;;;0.70;96.60;;;;;;5023325;28;20446;-64
2023/03/11 00:24:59;;;;;;;4.85;2.10;;;0.60;96.30;;;;;;5022553;28;20021;-65
2023/03/11 00:27:27;;;;;;;4.20;2.17;;;0.60;96.00;;;;;;5026028;28;20091;-64
2023/03/11 00:29:52;;;;;;;4.22;2.20;;;0.60;95.90;;;;;;5024057;28;20032;-65
2023/03/11 00:32:18;;;;;;;4.78;2.40;;;0.60;96.10;;;;;;5029774;28;20029;-64
2023/03/11 00:34:43;;;;;;;3.70;1.98;;;0.50;96.20;;;;;;5030880;28;20052;-64
2023/03/11 00:37:09;;;;;;;4.05;2.35;;;0.40;96.80;;;;;;5016075;28;20022;-64
2023/03/11 00:39:34;;;;;;;4.55;2.40;;;0.40;97.20;;;;;;5027466;28;20044;-64
2023/03/11 00:42:00;;;;;;;4.30;2.30;;;0.30;97.60;;;;;;5029514;28;20151;-64
2023/03/11 00:44:26;;;;;;;4.35;2.30;;;0.30;97.50;;;;;;5024412;28;20037;-64
2023/03/11 00:46:51;;;;;;;6.30;2.58;;;0.30;97.40;;;;;;5027843;28;20048;-64
2023/03/11 00:49:17;;;;;;;6.93;2.47;;;0.30;96.70;;;;;;5031037;28;20014;-64
2023/03/11 00:51:43;;;;;;;5.40;2.30;;;0.40;96.30;;;;;;5022653;28;20030;-64
2023/03/11 00:54:09;;;;;;;5.50;2.33;;;0.40;96.40;;;;;;5031852;28;20108;-64
2023/03/11 00:56:34;;;;;;;6.25;2.30;;;0.40;96.30;;;;;;5038809;28;20104;-64
2023/03/11 00:59:00;;;;;;;5.10;2.28;;;0.40;96.00;;;;;;5024558;28;20033;-64
2023/03/11 01:01:25;;;;;;;4.65;1.95;;;0.30;96.00;;;;;;5030481;28;20030;-64
2023/03/11 01:03:51;;;;;;;4.63;2.25;;;0.30;96.40;;;;;;5035700;28;20033;-64
2023/03/11 01:06:16;;;;;;;4.20;2.15;;;0.30;96.60;;;;;;5038417;28;20314;-64
2023/03/11 01:08:42;;;;;;;3.60;2.08;;;0.20;96.60;;;;;;5051752;28;20436;-64
2023/03/11 01:11:08;;;;;;;4.25;2.08;;;0.20;96.70;;;;;;5040279;28;20368;-64
2023/03/11 01:13:34;;;;;;;5.32;2.20;;;0.20;96.60;;;;;;5025531;28;20099;-64
2023/03/11 01:16:00;;;;;;;4.20;2.72;;;0.20;96.80;;;;;;5023572;28;20025;-64
2023/03/11 01:18:25;;;;;;;3.78;2.20;;;0.10;96.90;;;;;;5024191;28;20311;-64
2023/03/11 01:20:52;;;;;;;6.07;2.55;;;0.10;97.00;;;;;;5023064;28;20057;-64
2023/03/11 01:23:18;;;;;;;5.15;2.40;;;0.10;97.00;;;;;;5027764;28;20450;-63
2023/03/11 01:25:44;;;;;;;6.15;2.28;;;0.10;96.90;;;;;;5018593;28;20327;-64
2023/03/11 01:28:13;;;;;;;3.80;1.95;;;0.10;97.10;;;;;;5016812;28;20037;-64
2023/03/11 01:30:40;;;;;;;5.72;2.60;;;0.20;97.00;;;;;;5024184;28;20681;-64
2023/03/11 01:33:08;;;;;;;3.90;2.20;;;0.10;97.40;;;;;;5020017;28;20829;-64
2023/03/11 01:35:34;;;;;;;4.88;2.10;;;0.20;97.40;;;;;;5027041;28;20033;-64
2023/03/11 01:38:00;;;;;;;4.65;2.20;;;0.20;97.10;;;;;;5041058;28;20030;-64
2023/03/11 01:40:34;;;;;;;4.32;2.17;;;0.20;97.10;;;;;;5027942;28;20057;-64
2023/03/11 01:43:01;;;;;;;5.72;2.47;;;0.30;96.90;;;;;;5032854;28;20044;-64
2023/03/11 01:46:01;;;;;;;4.65;2.08;;;0.30;96.80;;;;;;5023743;28;20029;-64
2023/03/11 01:48:28;;;;;;;4.45;2.25;;;0.30;96.70;;;;;;5038031;28;20025;-64
2023/03/11 01:50:56;;;;;;;4.03;2.22;;;0.30;96.60;;;;;;5035048;28;20065;-64
2023/03/11 01:53:23;;;;;;;5.40;2.10;;;0.30;96.60;;;;;;5037351;28;20445;-63
2023/03/11 01:55:49;;;;;;;5.20;2.00;;;0.30;96.70;;;;;;5029726;28;20037;-63
2023/03/11 01:58:23;;;;;;;5.55;2.30;;;0.20;97.00;;;;;;5037469;28;20033;-63
2023/03/11 02:00:49;;;;;;;6.15;2.42;;;0.20;97.00;;;;;;5027079;28;20334;-63
2023/03/11 02:03:21;;;;;;;4.82;2.40;;;0.30;97.30;;;;;;5027548;28;20026;-66
2023/03/11 02:05:48;;;;;;;5.88;2.25;;;0.30;97.40;;;;;;5025634;28;20032;-64
2023/03/11 02:08:16;;;;;;;4.05;2.22;;;0.30;97.40;;;;;;5027625;28;20022;-65
2023/03/11 02:10:42;;;;;;;8.65;2.58;;;0.30;97.40;;;;;;5027814;28;20311;-65
2023/03/11 02:13:09;;;;;;;10.10;2.70;;;0.30;97.70;;;;;;5026101;28;20111;-64
2023/03/11 02:15:35;;;;;;;5.05;2.78;;;0.30;97.50;;;;;;5029930;28;20026;-64
2023/03/11 02:18:04;;;;;;;4.30;2.20;;;0.30;97.50;;;;;;5036470;28;20034;-64
2023/03/11 02:20:44;;;;;;;5.55;2.60;;;0.30;97.80;;;;;;5039637;28;20036;-64
2023/03/11 02:23:12;;;;;;;5.13;2.58;;;0.30;97.40;;;;;;5035035;28;20327;-64
2023/03/11 02:26:10;;;;;;;4.70;2.40;;;0.30;97.30;;;;;;5031709;28;20382;-64
2023/03/11 02:28:37;;;;;;;5.32;2.67;;;0.30;97.70;;;;;;5018652;28;20065;-64
2023/03/11 02:31:03;;;;;;;8.32;3.45;;;0.30;97.80;;;;;;5025764;28;20298;-64
2023/03/11 02:33:33;;;;;;;5.68;2.80;;;0.30;97.60;;;;;;5026251;28;20030;-64
2023/03/11 02:35:59;;;;;;;5.20;2.60;;;0.30;97.70;;;;;;5021807;28;20033;-64
2023/03/11 02:38:24;;;;;;;5.57;2.80;;;0.30;97.50;;;;;;5024930;28;20026;-64
2023/03/11 02:40:57;;;;;;;5.30;3.00;;;0.30;97.60;;;;;;5030377;28;20036;-63
2023/03/11 02:43:28;;;;;;;5.20;2.72;;;0.30;97.90;;;;;;5023551;28;20049;-64
2023/03/11 02:45:55;;;;;;;7.18;2.88;;;0.20;98.00;;;;;;5026386;28;20112;-64
2023/03/11 02:48:22;;;;;;;6.93;2.80;;;0.20;98.00;;;;;;5029260;28;20026;-64
2023/03/11 02:50:48;;;;;;;7.13;3.20;;;0.20;98.00;;;;;;5027447;28;20018;-63
2023/03/11 02:53:14;;;;;;;4.88;3.15;;;0.20;98.00;;;;;;5031706;28;20052;-64
2023/03/11 02:55:39;;;;;;;6.10;2.95;;;0.20;98.00;;;;;;5026033;28;20025;-64
2023/03/11 02:58:05;;;;;;;8.10;3.28;;;0.20;98.00;;;;;;5043691;28;20029;-64
2023/03/11 03:00:31;;;;;;;5.30;3.17;;;0.20;98.00;;;;;;5058777;28;20072;-64
2023/03/11 03:02:56;;;;;;;6.15;3.13;;;0.20;98.00;;;;;;5036089;28;20034;-63
2023/03/11 03:05:22;;;;;;;5.28;3.22;;;0.20;98.00;;;;;;5055257;28;20031;-64
2023/03/11 03:07:49;;;;;;;7.35;3.05;;;0.10;98.00;;;;;;5062811;28;20032;-64
2023/03/11 03:10:15;;;;;;;6.38;2.97;;;0.10;98.00;;;;;;5063563;28;20115;-63
2023/03/11 03:12:41;;;;;;;6.30;3.00;;;0.10;98.00;;;;;;5048240;28;20041;-64
2023/03/11 03:15:08;;;;;;;7.10;2.92;;;0.10;98.00;;;;;;5056425;28;20021;-64
2023/03/11 03:17:33;;;;;;;7.80;3.00;;;0.10;98.00;;;;;;5059105;28;20037;-64
2023/03/11 03:19:59;;;;;;;7.18;2.90;;;0.10;98.00;;;;;;5059700;28;20474;-64
2023/03/11 03:22:26;;;;;;;6.45;3.20;;;0.10;98.00;;;;;;5053486;28;20037;-64
2023/03/11 03:24:52;;;;;;;9.13;3.38;;;0.00;98.00;;;;;;5037875;28;20029;-64
2023/03/11 03:27:18;;;;;;;6.03;3.15;;;0.00;98.00;;;;;;5054465;28;20429;-64
2023/03/11 03:29:43;;;;;;;6.25;3.20;;;-0.10;98.00;;;;;;5048132;28;20062;-64
2023/03/11 03:32:12;;;;;;;7.78;3.03;;;-0.10;98.00;;;;;;5053636;28;20029;-64
2023/03/11 03:34:41;;;;;;;5.72;3.60;;;-0.10;98.00;;;;;;5041913;28;20083;-63
2023/03/11 03:37:06;;;;;;;7.38;3.28;;;-0.20;98.00;;;;;;5041012;28;20124;-63
2023/03/11 03:39:32;;;;;;;5.22;3.33;;;-0.20;98.00;;;;;;5039883;28;20477;-64
2023/03/11 03:41:58;;;;;;;5.88;2.95;;;-0.20;98.00;;;;;;5017633;28;20322;-63
2023/03/11 03:44:24;;;;;;;7.40;2.92;;;-0.20;98.00;;;;;;5040323;28;20026;-64
2023/03/11 03:46:49;;;;;;;6.07;3.13;;;-0.30;98.00;;;;;;5046966;28;20313;-63
2023/03/11 03:49:15;;;;;;;6.13;3.13;;;-0.40;98.00;;;;;;5051541;28;20318;-63
2023/03/11 03:51:40;;;;;;;5.07;2.75;;;-0.50;98.00;;;;;;5047318;28;20041;-63
2023/03/11 03:54:06;;;;;;;7.22;3.15;;;-0.50;98.00;;;;;;5040810;28;20022;-64
2023/03/11 03:56:31;;;;;;;9.15;3.53;;;-0.60;98.00;;;;;;5028654;28;20033;-64
2023/03/11 03:58:57;;;;;;;10.52;3.28;;;-0.60;98.00;;;;;;5037489;28;20032;-64
2023/03/11 04:01:22;;;;;;;6.53;3.20;;;-0.60;98.00;;;;;;5044707;28;20025;-64
2023/03/11 04:03:48;;;;;;;7.68;2.97;;;-0.60;98.00;;;;;;5045084;28;20109;-64
2023/03/11 04:06:16;;;;;;;6.97;2.95;;;-0.60;98.00;;;;;;5049034;28;20322;-63
2023/03/11 04:08:41;;;;;;;6.38;2.85;;;-0.70;98.00;;;;;;5054590;28;20048;-63
2023/03/11 04:11:07;;;;;;;6.78;2.97;;;-0.80;98.00;;;;;;5056746;28;20055;-63
2023/03/11 04:13:33;;;;;;;6.97;3.20;;;-0.90;98.00;;;;;;5047704;28;20416;-64
2023/03/11 04:15:59;;;;;;;8.10;2.83;;;-1.00;98.00;;;;;;5059231;28;20028;-64
2023/03/11 04:18:24;;;;;;;6.88;3.00;;;-1.00;98.00;;;;;;5046541;28;20117;-63
2023/03/11 04:20:50;;;;;;;5.18;2.85;;;-1.20;98.00;;;;;;5049034;28;20035;-63
2023/03/11 04:23:15;;;;;;;7.25;3.03;;;-1.20;98.00;;;;;;5057857;28;20433;-64
2023/03/11 04:25:41;;;;;;;4.97;2.80;;;-1.20;98.00;;;;;;5050165;28;20034;-64
2023/03/11 04:28:07;;;;;;;7.15;3.30;;;-1.20;98.00;;;;;;5050093;28;20028;-63
2023/03/11 04:30:32;;;;;;;8.35;3.00;;;-1.20;98.00;;;;;;5057129;28;20652;-63
2023/03/11 04:32:58;;;;;;;4.72;2.85;;;-1.10;98.00;;;;;;5054542;28;20041;-63
2023/03/11 04:35:23;;;;;;;6.80;2.90;;;-1.10;98.00;;;;;;5054150;28;20041;-63
2023/03/11 04:37:49;;;;;;;5.72;2.53;;;-1.00;98.00;;;;;;5053045;28;20036;-64
2023/03/11 04:40:15;;;;;;;4.78;2.70;;;-1.00;98.00;;;;;;5065154;28;20465;-64
2023/03/11 04:42:40;;;;;;;5.07;2.60;;;-1.00;98.00;;;;;;5049722;28;20440;-64
2023/03/11 04:45:06;;;;;;;6.05;2.95;;;-0.90;98.00;;;;;;5047300;28;20032;-64
2023/03/11 04:47:32;;;;;;;5.65;2.90;;;-0.90;98.00;;;;;;5059091;28;20345;-63
2023/03/11 04:49:58;;;;;;;7.15;2.95;;;-0.90;98.00;;;;;;5039624;28;20105;-63
2023/03/11 04:52:23;;;;;;;6.50;3.05;;;-1.00;98.00;;;;;;5040277;28;20055;-63
2023/03/11 04:54:49;;;;;;;6.10;3.10;;;-1.00;98.00;;;;;;5050032;28;20029;-63
2023/03/11 04:57:14;;;;;;;5.90;3.13;;;-1.00;98.00;;;;;;5055253;28;20409;-66
2023/03/11 04:59:40;;;;;;;7.60;3.97;;;-1.00;98.00;;;;;;5053769;28;20049;-65
2023/03/11 05:02:05;;;;;;;7.82;3.28;;;-1.20;98.00;;;;;;5060767;28;20099;-64
2023/03/11 05:04:31;;;;;;;7.75;2.90;;;-1.30;98.00;;;;;;5064073;28;20029;-64
2023/03/11 05:06:57;;;;;;;6.03;3.22;;;-1.40;98.00;;;;;;5042301;28;20036;-64
2023/03/11 05:09:22;;;;;;;9.63;3.60;;;-1.40;98.00;;;;;;5042448;28;20052;-64
2023/03/11 05:11:48;;;;;;;7.05;3.45;;;-1.50;98.00;;;;;;5053911;28;20071;-64
2023/03/11 05:14:13;;;;;;;6.32;3.13;;;-1.50;98.00;;;;;;5054435;28;20152;-64
2023/03/11 05:16:39;;;;;;;5.55;3.38;;;-1.50;98.00;;;;;;5062580;28;20075;-64
2023/03/11 05:19:29;;;;;;;7.47;2.90;;;-1.50;98.00;;;;;;5055728;28;20032;-64
2023/03/11 05:21:50;;;;;;;8.25;3.47;;;-1.50;98.00;;;;;;5055628;28;20047;-63
2023/03/11 05:24:16;;;;;;;9.68;3.80;;;-1.40;98.00;;;;;;5048347;28;20049;-63
2023/03/11 05:26:41;;;;;;;10.48;4.22;;;-1.30;98.00;;;;;;5052961;28;20040;-63
2023/03/11 05:29:07;;;;;;;17.13;6.65;;;-1.30;98.00;;;;;;5056649;28;20032;-64
2023/03/11 05:31:32;;;;;;;8.00;3.90;;;-1.40;98.00;;;;;;5046117;28;20116;-64
2023/03/11 05:33:58;;;;;;;8.60;4.65;;;-1.40;98.00;;;;;;5055435;28;20040;-64
2023/03/11 05:36:23;;;;;;;6.65;4.03;;;-1.50;98.00;;;;;;5063154;28;20036;-64
2023/03/11 05:38:49;;;;;;;7.82;4.65;;;-1.50;98.00;;;;;;5054454;28;20029;-63
2023/03/11 05:41:14;;;;;;;24.35;10.80;;;-1.50;98.00;;;;;;5039494;28;20040;-63
2023/03/11 05:43:40;;;;;;;21.92;8.80;;;-1.60;98.00;;;;;;5044072;28;20037;-63
2023/03/11 05:46:05;;;;;;;21.58;9.48;;;-1.50;98.00;;;;;;5052688;28;20108;-63
2023/03/11 05:48:31;;;;;;;34.55;9.65;;;-1.50;98.00;;;;;;5052799;28;20114;-63
2023/03/11 05:50:58;;;;;;;12.30;5.20;;;-1.50;98.00;;;;;;5050258;28;20022;-63
2023/03/11 05:53:24;;;;;;;9.43;4.88;;;-1.50;98.00;;;;;;5049945;28;20029;-63
2023/03/11 05:55:59;;;;;;;10.13;6.20;;;-1.50;98.00;;;;;;5056649;28;20299;-64
2023/03/11 05:58:26;;;;;;;20.65;12.40;;;-1.50;98.00;;;;;;5048113;28;20029;-64
2023/03/11 06:00:52;;;;;;;16.60;10.15;;;-1.50;98.00;;;;;;5055124;28;20053;-63
2023/03/11 06:03:18;;;;;;;10.68;6.82;;;-1.50;98.00;;;;;;5049115;28;20028;-64
2023/03/11 06:05:48;;;;;;;6.80;4.35;;;-1.70;98.00;;;;;;5049255;28;20362;-62
2023/03/11 06:08:15;;;;;;;6.47;3.53;;;-1.70;98.00;;;;;;5053805;28;20471;-63
2023/03/11 06:10:41;;;;;;;6.75;3.25;;;-1.80;98.00;;;;;;5043712;28;20025;-63
2023/03/11 06:13:06;;;;;;;12.40;5.70;;;-1.80;98.00;;;;;;5047649;28;20030;-64
2023/03/11 06:15:36;;;;;;;10.27;5.70;;;-1.80;98.00;;;;;;5050945;28;20483;-63
2023/03/11 06:18:02;;;;;;;9.30;4.60;;;-1.80;98.00;;;;;;5050791;28;20056;-63
2023/03/11 06:20:28;;;;;;;7.07;3.80;;;-1.80;98.00;;;;;;5049473;28;20060;-63
2023/03/11 06:22:53;;;;;;;8.50;3.72;;;-1.80;98.00;;;;;;5055525;28;20039;-63
2023/03/11 06:25:19;;;;;;;13.82;4.90;;;-1.70;98.00;;;;;;5065067;28;20100;-63
2023/03/11 06:27:52;;;;;;;8.75;4.35;;;-1.70;98.00;;;;;;5054314;28;20029;-63
2023/03/11 06:30:18;;;;;;;9.18;3.85;;;-1.70;98.00;;;;;;5054678;28;20039;-63
2023/03/11 06:32:47;;;;;;;15.93;6.30;;;-1.60;98.00;;;;;;5052387;28;20033;-63
2023/03/11 06:35:13;;;;;;;20.98;7.10;;;-1.60;97.70;;;;;;5045355;28;20044;-63
2023/03/11 06:37:39;;;;;;;13.45;6.00;;;-1.50;97.30;;;;;;5043851;28;20032;-63
2023/03/11 06:40:06;;;;;;;8.60;3.22;;;-1.50;97.30;;;;;;5067479;28;20033;-63
2023/03/11 06:42:32;;;;;;;6.03;3.20;;;-1.40;97.70;;;;;;5055356;28;20433;-63
2023/03/11 06:44:58;;;;;;;8.90;4.60;;;-1.40;97.90;;;;;;5052877;28;20029;-63
2023/03/11 06:47:24;;;;;;;10.02;4.65;;;-1.50;98.00;;;;;;5064851;28;20027;-63
2023/03/11 06:49:50;;;;;;;7.05;4.07;;;-1.40;98.00;;;;;;5061572;28;20033;-63
2023/03/11 06:52:16;;;;;;;6.35;4.30;;;-1.40;98.00;;;;;;5057376;28;20032;-63
2023/03/11 06:54:41;;;;;;;8.18;5.40;;;-1.30;98.00;;;;;;5050937;28;20087;-63
2023/03/11 06:57:07;;;;;;;10.25;4.60;;;-1.10;98.00;;;;;;5046791;28;20029;-63
2023/03/11 06:59:33;;;;;;;11.38;5.78;;;-0.90;98.00;;;;;;5049808;28;20044;-63
2023/03/11 07:01:59;;;;;;;7.93;4.30;;;-0.80;98.00;;;;;;5060526;28;20116;-63
2023/03/11 07:04:24;;;;;;;8.60;3.38;;;-0.50;97.60;;;;;;5049413;28;20087;-63
2023/03/11 07:06:50;;;;;;;9.10;4.43;;;-0.40;96.90;;;;;;5065772;28;20069;-63
2023/03/11 07:09:16;;;;;;;6.32;3.92;;;-0.20;95.90;;;;;;5061079;28;20025;-63
2023/03/11 07:11:41;;;;;;;11.77;5.50;;;-0.30;95.00;;;;;;5066847;28;20032;-63
2023/03/11 07:14:07;;;;;;;8.00;3.75;;;-0.30;95.00;;;;;;5051307;28;20048;-63
2023/03/11 07:16:33;;;;;;;9.15;4.18;;;-0.30;95.30;;;;;;5046940;28;20269;-63
2023/03/11 07:19:01;;;;;;;16.27;4.93;;;-0.20;94.80;;;;;;5050987;28;20449;-63
2023/03/11 07:21:28;;;;;;;11.55;4.97;;;-0.40;94.60;;;;;;5062494;28;20036;-63
2023/03/11 07:23:56;;;;;;;12.88;4.40;;;-0.40;94.90;;;;;;5068656;28;20025;-63
2023/03/11 07:26:23;;;;;;;5.57;2.58;;;-0.30;95.40;;;;;;5049782;28;20079;-64
2023/03/11 07:28:49;;;;;;;7.63;3.47;;;-0.30;95.10;;;;;;5044899;28;20025;-63
2023/03/11 07:31:18;;;;;;;9.27;3.50;;;-0.30;94.90;;;;;;5037273;28;20071;-63
2023/03/11 07:33:44;;;;;;;10.07;3.92;;;-0.20;94.70;;;;;;5056360;28;20321;-63
2023/03/11 07:36:15;;;;;;;10.50;3.20;;;-0.20;94.40;;;;;;5057621;28;20036;-63
2023/03/11 07:38:41;;;;;;;8.65;2.97;;;-0.10;94.50;;;;;;5055179;28;20032;-63
2023/03/11 07:41:07;;;;;;;11.10;3.70;;;0.10;93.60;;;;;;5038831;28;20036;-62
2023/03/11 07:43:33;;;;;;;9.35;3.47;;;0.10;93.10;;;;;;5018515;28;20121;-62
2023/03/11 07:46:21;;;;;;;7.50;5.32;;;-0.10;93.30;;;;;;5051618;28;20108;-62
2023/03/11 07:48:48;;;;;;;7.20;3.50;;;-0.20;93.90;;;;;;5046509;28;20037;-63
2023/03/11 07:51:26;;;;;;;8.32;3.20;;;-0.10;94.40;;;;;;5060892;28;20109;-64
2023/03/11 07:53:54;;;;;;;8.65;3.42;;;0.00;93.30;;;;;;5034222;28;20075;-64
2023/03/11 07:56:23;;;;;;;13.07;5.55;;;0.30;93.20;;;;;;5059160;28;20515;-63
2023/03/11 07:58:49;;;;;;;7.60;2.80;;;0.40;92.70;;;;;;5061841;28;20030;-63
2023/03/11 08:01:21;;;;;;;6.75;2.63;;;0.50;92.20;;;;;;5053322;28;20048;-64
2023/03/11 08:03:49;;;;;;;6.75;2.75;;;0.60;91.00;;;;;;5048271;28;20027;-64
2023/03/11 08:06:20;;;;;;;6.20;2.35;;;0.70;89.70;;;;;;5048720;28;20032;-63
2023/03/11 08:08:47;;;;;;;7.85;2.42;;;0.80;89.50;;;;;;5047033;28;20037;-63
2023/03/11 08:11:14;;;;;;;9.23;3.45;;;1.10;89.10;;;;;;5050458;28;20039;-63
2023/03/11 08:13:41;;;;;;;6.80;2.60;;;1.20;88.60;;;;;;5054904;28;20438;-63
2023/03/11 08:16:15;;;;;;;8.93;3.05;;;1.40;88.20;;;;;;5051671;28;20041;-62
2023/03/11 08:18:41;;;;;;;6.57;2.40;;;1.50;87.20;;;;;;5045572;28;20033;-64
2023/03/11 08:21:10;;;;;;;7.30;1.90;;;1.40;85.30;;;;;;5054361;28;20044;-63
2023/03/11 08:23:35;;;;;;;9.05;3.35;;;1.40;85.20;;;;;;5037007;28;20032;-63
2023/03/11 08:26:06;;;;;;;7.50;3.25;;;1.30;85.20;;;;;;5053214;28;20025;-63
2023/03/11 08:28:31;;;;;;;6.60;2.28;;;1.30;86.40;;;;;;5044753;28;20056;-63
2023/03/11 08:30:57;;;;;;;16.95;7.43;;;1.30;86.00;;;;;;5052017;28;20021;-63
2023/03/11 08:33:22;;;;;;;5.72;2.00;;;1.50;86.30;;;;;;5055301;28;20029;-63
2023/03/11 08:35:48;;;;;;;7.25;2.45;;;1.70;85.10;;;;;;5046356;28;20381;-63
2023/03/11 08:38:13;;;;;;;8.13;2.70;;;2.50;83.70;;;;;;5035339;28;20489;-63
2023/03/11 08:40:39;;;;;;;6.53;2.42;;;4.20;81.00;;;;;;5046629;28;20074;-63
2023/03/11 08:43:05;;;;;;;6.40;2.28;;;5.10;76.30;;;;;;5046813;28;20108;-63
2023/03/11 08:45:30;;;;;;;6.63;1.67;;;6.20;74.40;;;;;;5045762;28;20328;-63
2023/03/11 08:47:56;;;;;;;9.93;2.80;;;6.40;71.80;;;;;;5052191;28;20022;-64
2023/03/11 08:50:21;;;;;;;8.57;1.95;;;5.70;73.50;;;;;;5054705;28;20028;-63
2023/03/11 08:52:47;;;;;;;8.82;2.42;;;4.60;74.90;;;;;;5056761;28;20024;-63
2023/03/11 08:55:16;;;;;;;5.35;1.98;;;3.90;77.70;;;;;;5049123;28;20025;-64
2023/03/11 08:57:42;;;;;;;11.60;5.68;;;3.30;79.00;;;;;;5048179;28;20040;-64
2023/03/11 09:00:09;;;;;;;12.40;4.18;;;2.90;80.80;;;;;;5050366;28;20045;-63
2023/03/11 09:02:34;;;;;;;7.32;1.85;;;2.60;81.50;;;;;;5048610;28;20025;-63
2023/03/11 09:05:00;;;;;;;8.10;3.00;;;2.40;81.70;;;;;;5048876;28;20040;-64
2023/03/11 09:07:27;;;;;;;8.13;2.47;;;3.30;81.30;;;;;;5051274;28;20082;-64
2023/03/11 09:09:53;;;;;;;9.15;2.22;;;4.50;77.60;;;;;;5058572;28;20033;-64
2023/03/11 09:12:22;;;;;;;7.28;1.92;;;5.60;75.50;;;;;;5045951;28;20116;-64
2023/03/11 09:14:47;;;;;;;5.90;1.95;;;6.60;72.60;;;;;;5056053;28;20083;-64
2023/03/11 09:17:13;;;;;;;7.85;1.55;;;7.00;70.60;;;;;;5052004;28;20036;-64
2023/03/11 09:19:38;;;;;;;5.35;1.48;;;8.00;67.20;;;;;;5038380;28;20025;-64
2023/03/11 09:22:04;;;;;;;4.90;1.48;;;6.50;67.30;;;;;;5040759;28;20033;-64
2023/03/11 09:24:34;;;;;;;6.38;1.85;;;5.50;71.20;;;;;;5057629;28;20025;-64
2023/03/11 09:27:01;;;;;;;5.15;2.22;;;6.30;71.80;;;;;;5054657;28;20033;-65
2023/03/11 09:29:26;;;;;;;5.72;1.73;;;7.20;69.30;;;;;;5040769;28;20739;-64
2023/03/11 09:31:52;;;;;;;4.68;1.33;;;7.60;67.60;;;;;;5045938;28;20105;-64
2023/03/11 09:34:18;;;;;;;3.47;1.50;;;7.40;68.20;;;;;;5057039;28;20028;-64
2023/03/11 09:36:43;;;;;;;4.93;1.33;;;6.70;66.80;;;;;;5048270;28;20021;-65
2023/03/11 09:39:10;;;;;;;4.35;1.38;;;6.30;68.00;;;;;;5045766;28;20033;-65
2023/03/11 09:41:52;;;;;;;6.60;1.70;;;6.30;69.00;;;;;;5048518;28;20028;-65
2023/03/11 09:44:24;;;;;;;4.45;1.55;;;6.10;69.40;;;;;;5046973;28;20069;-65
2023/03/11 09:47:35;;;;;;;6.93;1.90;;;7.10;69.40;;;;;;5038011;28;20025;-65
2023/03/11 09:50:15;;;;;;;6.00;1.92;;;8.80;64.10;;;;;;5031863;28;20426;-65
2023/03/11 09:53:16;;;;;;;6.97;1.65;;;9.00;62.60;;;;;;5054860;28;20491;-65
2023/03/11 09:55:46;;;;;;;4.38;1.25;;;9.30;62.40;;;;;;5030331;28;20049;-65
2023/03/11 09:58:33;;;;;;;5.03;1.90;;;9.40;61.10;;;;;;5048274;28;20098;-65
2023/03/11 10:01:01;;;;;;;6.45;1.85;;;8.20;62.20;;;;;;5046284;28;20045;-65
2023/03/11 10:03:33;;;;;;;3.03;1.20;;;5.80;67.00;;;;;;5051741;28;20032;-64
2023/03/11 10:06:10;;;;;;;5.25;1.30;;;4.60;69.10;;;;;;5044309;28;20021;-64
2023/03/11 10:08:42;;;;;;;5.65;1.70;;;4.10;71.20;;;;;;5046953;28;20020;-65
2023/03/11 10:11:31;;;;;;;6.15;1.77;;;3.50;73.50;;;;;;5044464;28;20022;-64
2023/03/11 10:14:03;;;;;;;4.40;1.58;;;3.10;74.80;;;;;;5045430;28;20030;-64
2023/03/11 10:16:40;;;;;;;6.13;2.00;;;3.00;74.90;;;;;;5042220;28;20025;-65
2023/03/11 10:19:35;;;;;;;6.78;1.70;;;2.80;76.70;;;;;;5052106;28;20024;-65
2023/03/11 10:22:31;;;;;;;4.85;1.55;;;3.90;74.30;;;;;;5044488;28;20083;-64
2023/03/11 10:25:02;;;;;;;4.15;1.70;;;4.00;72.10;;;;;;5042383;28;20025;-65
2023/03/11 10:27:53;;;;;;;5.13;2.10;;;3.40;71.60;;;;;;5038100;28;20089;-65
2023/03/11 10:30:41;;;;;;;9.43;4.15;;;3.00;72.90;;;;;;5051725;28;20025;-65
2023/03/11 10:33:20;;;;;;;6.47;2.20;;;2.40;73.70;;;;;;5050865;28;20108;-64
2023/03/11 10:35:51;;;;;;;6.07;2.15;;;2.80;75.30;;;;;;5036105;28;20032;-64
2023/03/11 10:38:34;;;;;;;5.85;1.65;;;4.60;72.80;;;;;;5046553;28;20393;-64
2023/03/11 10:41:12;;;;;;;4.88;1.30;;;6.50;69.50;;;;;;5053362;28;20294;-62
2023/03/11 10:43:42;;;;;;;5.85;1.60;;;7.70;66.10;;;;;;5053425;28;20035;-63
2023/03/11 10:46:22;;;;;;;4.95;1.65;;;7.20;65.60;;;;;;5054147;28;20096;-63
2023/03/11 10:48:48;;;;;;;3.80;1.20;;;7.90;65.50;;;;;;5058205;28;20452;-66
2023/03/11 10:51:21;;;;;;;2.85;1.15;;;9.50;64.30;;;;;;5054133;28;20128;-63
2023/03/11 10:53:56;;;;;;;4.40;1.38;;;10.20;60.70;;;;;;5044725;28;20056;-63
2023/03/11 10:56:36;;;;;;;5.68;1.30;;;9.60;60.50;;;;;;5038644;28;20036;-65
2023/03/11 10:59:08;;;;;;;5.00;1.40;;;8.60;61.90;;;;;;5058661;28;20033;-64
2023/03/11 11:01:33;;;;;;;6.03;1.65;;;8.40;62.00;;;;;;5053392;28;20087;-65
2023/03/11 11:04:00;;;;;;;5.80;1.52;;;8.20;63.00;;;;;;5042527;28;20033;-65
2023/03/11 11:06:36;;;;;;;4.25;1.52;;;7.30;63.10;;;;;;5043960;28;20026;-64
2023/03/11 11:09:15;;;;;;;4.75;1.40;;;6.20;64.90;;;;;;5039957;28;20025;-64
2023/03/11 11:11:58;;;;;;;82.13;42.67;;;6.50;66.30;;;;;;5047195;28;20044;-64
2023/03/11 11:14:42;;;;;;;4.93;2.03;;;7.50;67.50;;;;;;5048997;28;20360;-65
2023/03/11 11:17:17;;;;;;;5.28;1.83;;;8.60;65.30;;;;;;5045674;28;20025;-64
2023/03/11 11:19:47;;;;;;;5.57;1.55;;;8.60;61.80;;;;;;5024807;28;20033;-64
2023/03/11 11:22:19;;;;;;;5.75;1.80;;;8.10;61.80;;;;;;5051139;28;20075;-64
2023/03/11 11:24:52;;;;;;;6.22;1.85;;;6.50;62.70;;;;;;5053731;28;20418;-64
2023/03/11 11:27:20;;;;;;;5.18;1.70;;;6.20;65.20;;;;;;5046467;28;20032;-64
2023/03/11 11:29:47;;;;;;;5.05;1.50;;;6.30;65.80;;;;;;5035456;28;20123;-64
2023/03/11 11:32:20;;;;;;;6.70;1.60;;;6.60;66.20;;;;;;5049632;28;20025;-64
2023/03/11 11:35:06;;;;;;;4.80;1.80;;;6.80;64.60;;;;;;5044625;28;20032;-64
2023/03/11 11:37:35;;;;;;;3.97;1.58;;;7.30;64.10;;;;;;5046657;28;20024;-63
2023/03/11 11:40:09;;;;;;;3.90;1.48;;;7.80;63.10;;;;;;5054603;28;20029;-64
2023/03/11 11:42:37;;;;;;;6.00;1.95;;;7.60;63.70;;;;;;5049680;28;20593;-64
2023/03/11 11:45:33;;;;;;;4.43;1.40;;;7.80;64.70;;;;;;5041769;28;20025;-64
2023/03/11 11:48:03;;;;;;;3.55;1.40;;;8.10;61.10;;;;;;5035771;28;20032;-64
2023/03/11 11:50:35;;;;;;;6.07;1.88;;;8.10;61.80;;;;;;5052221;28;20029;-64
2023/03/11 11:53:32;;;;;;;5.30;1.42;;;8.10;62.00;;;;;;5049152;28;20919;-64
2023/03/11 11:55:58;;;;;;;5.20;1.60;;;8.60;64.80;;;;;;5024614;28;20029;-64
2023/03/11 11:58:24;;;;;;;7.63;1.77;;;8.80;62.70;;;;;;5052215;28;20443;-64
2023/03/11 12:01:14;;;;;;;4.32;2.00;;;8.30;62.70;;;;;;5029853;28;20050;-65
2023/03/11 12:04:04;;;;;;;6.80;1.98;;;7.70;64.20;;;;;;5040559;28;20029;-64
2023/03/11 12:06:33;;;;;;;5.80;2.05;;;6.70;64.70;;;;;;5037463;28;20030;-65
2023/03/11 12:09:25;;;;;;;4.13;1.60;;;6.90;66.80;;;;;;5036025;28;20024;-64
2023/03/11 12:12:17;;;;;;;7.88;1.73;;;7.10;65.20;;;;;;5046612;28;20067;-65
2023/03/11 12:14:48;;;;;;;4.85;1.58;;;7.60;63.30;;;;;;5021470;28;20446;-65
2023/03/11 12:17:17;;;;;;;4.78;1.67;;;7.70;61.60;;;;;;5048702;28;20100;-65
2023/03/11 12:20:07;;;;;;;4.50;1.42;;;7.50;58.60;;;;;;5041531;28;20498;-64
2023/03/11 12:22:49;;;;;;;4.00;1.50;;;7.30;60.30;;;;;;5053919;28;20037;-64
2023/03/11 12:25:40;;;;;;;3.85;1.33;;;7.30;60.40;;;;;;5046078;28;20041;-64
2023/03/11 12:28:33;;;;;;;4.32;1.55;;;7.10;60.50;;;;;;5049566;28;20078;-64
2023/03/11 12:31:04;;;;;;;5.32;1.80;;;7.10;62.80;;;;;;5042911;28;20032;-64
2023/03/11 12:33:33;;;;;;;5.35;1.60;;;7.70;62.60;;;;;;5049059;28;20051;-64
2023/03/11 12:35:59;;;;;;;4.72;1.50;;;7.60;63.50;;;;;;5046165;28;20314;-63
2023/03/11 12:38:44;;;;;;;6.05;1.80;;;7.10;62.50;;;;;;5047212;28;20024;-64
2023/03/11 12:41:12;;;;;;;4.82;1.85;;;6.90;63.80;;;;;;5048002;28;20341;-63
2023/03/11 12:43:45;;;;;;;6.28;1.65;;;7.20;63.00;;;;;;5048738;28;20360;-63
2023/03/11 12:46:13;;;;;;;6.32;1.70;;;7.40;63.70;;;;;;5054120;28;20111;-64
2023/03/11 12:48:48;;;;;;;5.75;1.55;;;7.40;62.60;;;;;;5039202;28;20283;-64
2023/03/11 12:51:26;;;;;;;5.88;1.95;;;7.00;62.90;;;;;;5049268;28;20345;-64
2023/03/11 12:53:54;;;;;;;8.25;2.40;;;7.00;64.30;;;;;;5030770;28;20033;-63
2023/03/11 12:56:43;;;;;;;3.97;1.40;;;7.20;64.30;;;;;;5044854;28;20029;-63
2023/03/11 13:00:08;;;;;;;4.68;1.67;;;7.30;63.60;;;;;;5056029;28;20060;-63
2023/03/11 13:02:49;;;;;;;5.15;2.08;;;7.10;62.70;;;;;;5015246;28;20540;-63
2023/03/11 13:05:27;;;;;;;6.18;1.73;;;7.10;66.20;;;;;;5056210;28;20020;-62